Time;durP1;ratioP1;P1;durP2;ratioP2;P2;SDS_P1;SDS_P2;PMS_P1;PMS_P2;Temp;Humidity;BMP_temperature;BMP_pressure;BME280_temperature;BME280_humidity;BME280_pressure;Samples;Min_cycle;Max_cycle;Signal;HPM_P1;HPM_P2
2023/01/11 00:02:02;;;;;;;21.25;9.55;;;8.70;99.90;;;;;;4994555;28;20046;-67
2023/01/11 00:04:29;;;;;;;16.83;9.05;;;8.70;99.90;;;;;;4993351;28;20419;-67
2023/01/11 00:06:55;;;;;;;16.17;8.77;;;8.90;99.90;;;;;;4993666;28;20048;-66
2023/01/11 00:09:21;;;;;;;17.88;9.38;;;8.90;99.90;;;;;;4988694;28;20042;-65
2023/01/11 00:11:47;;;;;;;20.52;9.63;;;8.90;99.90;;;;;;4994264;28;20041;-66
2023/01/11 00:14:13;;;;;;;19.83;9.35;;;9.00;99.90;;;;;;4991680;28;20033;-66
2023/01/11 00:16:39;;;;;;;19.58;9.38;;;8.80;99.90;;;;;;5006830;28;20050;-65
2023/01/11 00:19:05;;;;;;;18.05;8.65;;;8.90;99.90;;;;;;4990537;28;20057;-66
2023/01/11 00:21:30;;;;;;;19.38;9.00;;;9.00;99.90;;;;;;5009937;28;20050;-66
2023/01/11 00:23:56;;;;;;;19.15;9.70;;;8.80;99.90;;;;;;4991123;28;20045;-66
2023/01/11 00:26:22;;;;;;;19.90;9.23;;;8.80;99.90;;;;;;4993458;28;20053;-67
2023/01/11 00:28:48;;;;;;;17.45;9.38;;;9.00;99.90;;;;;;4999732;28;20149;-67
2023/01/11 00:31:15;;;;;;;21.52;9.95;;;9.00;99.90;;;;;;4977299;28;20053;-68
2023/01/11 00:33:40;;;;;;;18.27;9.07;;;8.80;99.90;;;;;;5002713;28;20440;-66
2023/01/11 00:36:06;;;;;;;20.35;9.68;;;8.90;99.90;;;;;;4992128;28;20037;-66
2023/01/11 00:38:50;;;;;;;18.02;9.48;;;8.90;99.90;;;;;;5010977;28;20033;-67
2023/01/11 00:49:36;;;;;;;17.70;9.05;;;8.90;99.90;;;;;;4992326;28;20052;-67
2023/01/11 00:52:05;;;;;;;18.98;9.35;;;9.00;99.90;;;;;;4992884;28;20319;-69
2023/01/11 00:54:31;;;;;;;19.77;9.82;;;9.20;99.90;;;;;;5000349;28;20066;-66
2023/01/11 00:56:57;;;;;;;20.50;9.82;;;9.00;99.90;;;;;;4994972;28;20069;-65
2023/01/11 00:59:22;;;;;;;20.73;9.13;;;9.20;99.90;;;;;;4990577;28;20085;-65
2023/01/11 01:01:48;;;;;;;20.40;9.07;;;9.00;99.90;;;;;;4991608;28;20127;-68
2023/01/11 01:04:13;;;;;;;19.40;9.10;;;9.20;99.90;;;;;;4990943;28;20045;-67
2023/01/11 01:06:39;;;;;;;17.77;8.40;;;9.10;99.90;;;;;;5008248;28;20038;-65
2023/01/11 01:09:04;;;;;;;18.25;9.20;;;9.30;99.90;;;;;;4987738;28;20038;-66
2023/01/11 01:11:30;;;;;;;14.43;8.57;;;9.10;99.90;;;;;;5006395;28;20096;-66
2023/01/11 01:16:41;;;;;;;17.67;8.88;;;9.10;99.90;;;;;;4991508;28;20120;-66
2023/01/11 01:19:07;;;;;;;17.90;9.15;;;9.30;99.90;;;;;;4994448;28;20045;-65
2023/01/11 01:21:33;;;;;;;17.58;9.40;;;9.40;99.90;;;;;;5004472;28;21519;-65
2023/01/11 01:23:58;;;;;;;17.85;9.07;;;9.20;99.90;;;;;;4993559;28;20053;-66
2023/01/11 01:26:24;;;;;;;16.48;9.38;;;9.20;99.90;;;;;;4990957;28;20275;-67
2023/01/11 01:28:49;;;;;;;19.50;9.05;;;9.40;99.90;;;;;;4988052;28;20061;-66
2023/01/11 01:31:16;;;;;;;20.08;10.13;;;9.40;99.90;;;;;;4987483;28;20377;-67
2023/01/11 01:33:42;;;;;;;20.52;9.07;;;9.50;99.90;;;;;;5004426;28;20041;-65
2023/01/11 01:36:07;;;;;;;17.10;9.18;;;9.30;99.90;;;;;;4990681;28;20038;-64
2023/01/11 01:38:33;;;;;;;19.08;8.95;;;9.30;99.90;;;;;;4992065;28;20033;-67
2023/01/11 01:40:59;;;;;;;19.45;9.32;;;9.30;99.90;;;;;;4991803;28;20116;-65
2023/01/11 01:43:47;;;;;;;16.45;9.18;;;9.50;99.90;;;;;;4993992;28;20034;-67
2023/01/11 01:46:13;;;;;;;15.60;8.95;;;9.50;99.90;;;;;;4992198;28;20038;-66
2023/01/11 01:48:42;;;;;;;15.73;8.88;;;9.50;99.90;;;;;;4993218;28;20037;-68
2023/01/11 01:51:11;;;;;;;18.73;9.27;;;9.40;99.90;;;;;;4999104;28;20049;-67
2023/01/11 01:53:43;;;;;;;18.77;8.75;;;9.40;99.90;;;;;;5010912;28;20088;-67
2023/01/11 01:56:22;;;;;;;16.50;8.70;;;9.40;99.90;;;;;;4990211;28;20035;-67
2023/01/11 01:58:53;;;;;;;18.05;8.80;;;9.40;99.90;;;;;;4994438;28;20048;-69
2023/01/11 02:04:11;;;;;;;17.63;8.32;;;9.50;99.90;;;;;;4985624;28;20053;-68
2023/01/11 02:06:37;;;;;;;16.65;8.27;;;9.60;99.90;;;;;;5024998;28;20052;-67
2023/01/11 02:09:19;;;;;;;16.17;7.43;;;9.70;99.90;;;;;;5005236;28;20555;-68
2023/01/11 02:11:46;;;;;;;16.20;8.18;;;9.60;99.90;;;;;;4990126;28;20511;-68
2023/01/11 02:14:16;;;;;;;18.63;8.90;;;9.80;99.90;;;;;;4983812;28;20049;-67
2023/01/11 02:16:42;;;;;;;13.40;7.68;;;9.80;99.90;;;;;;4993029;28;20076;-69
2023/01/11 02:19:23;;;;;;;13.80;8.15;;;9.80;99.90;;;;;;5006352;28;20478;-66
2023/01/11 02:22:12;;;;;;;19.08;8.38;;;9.70;99.90;;;;;;4996637;28;20129;-66
2023/01/11 02:25:20;;;;;;;18.77;7.90;;;9.80;99.90;;;;;;4993059;28;20065;-65
2023/01/11 02:28:15;;;;;;;15.23;7.57;;;9.80;99.90;;;;;;4962587;28;20098;-69
2023/01/11 02:31:07;;;;;;;13.48;6.82;;;9.80;99.90;;;;;;4982950;28;20041;-67
2023/01/11 02:33:42;;;;;;;13.33;7.07;;;9.90;99.90;;;;;;4991766;28;20484;-68
2023/01/11 02:36:32;;;;;;;16.38;7.50;;;9.70;99.90;;;;;;5006201;28;20633;-69
2023/01/11 02:39:36;;;;;;;13.75;6.85;;;9.90;99.90;;;;;;5008969;28;20046;-68
2023/01/11 02:45:11;;;;;;;15.38;6.88;;;9.90;99.90;;;;;;4987924;28;20477;-68
2023/01/11 02:47:55;;;;;;;14.23;6.90;;;10.00;99.90;;;;;;5002589;28;20077;-68
2023/01/11 02:50:38;;;;;;;12.07;6.45;;;10.00;99.90;;;;;;4986535;28;20993;-69
2023/01/11 02:53:20;;;;;;;15.40;7.18;;;9.80;99.90;;;;;;4986528;28;20050;-69
2023/01/11 02:55:48;;;;;;;;;;;9.80;99.90;;;;;;4988923;28;20357;-69
2023/01/11 02:58:16;;;;;;;14.88;6.45;;;10.00;99.90;;;;;;5004952;28;19917;-70
2023/01/11 03:00:43;;;;;;;12.55;6.57;;;10.00;99.90;;;;;;4986211;28;20042;-70
2023/01/11 03:03:13;;;;;;;14.32;6.47;;;9.80;99.90;;;;;;4986372;28;20799;-68
2023/01/11 03:05:52;;;;;;;10.00;5.70;;;10.00;99.90;;;;;;5004270;28;20416;-70
2023/01/11 03:08:32;;;;;;;12.68;5.70;;;10.00;99.90;;;;;;4987527;28;20045;-67
2023/01/11 03:11:05;;;;;;;12.07;5.70;;;10.10;99.90;;;;;;5000816;28;20050;-70
2023/01/11 03:13:57;;;;;;;13.73;5.15;;;9.90;99.90;;;;;;4981516;28;20065;-68
2023/01/11 03:16:29;;;;;;;7.57;4.32;;;10.00;99.90;;;;;;4987319;28;20049;-71
2023/01/11 03:19:36;;;;;;;10.30;4.85;;;10.00;99.90;;;;;;4973058;28;20052;-69
2023/01/11 03:22:15;;;;;;;8.00;4.15;;;10.00;99.90;;;;;;4945712;28;20408;-71
2023/01/11 03:24:54;;;;;;;10.55;3.88;;;10.00;99.90;;;;;;4998526;28;20057;-66
2023/01/11 03:27:25;;;;;;;6.40;3.13;;;9.90;99.90;;;;;;4987592;28;20102;-65
2023/01/11 03:30:06;;;;;;;7.20;3.47;;;10.00;99.90;;;;;;5003202;28;20046;-66
2023/01/11 03:32:49;;;;;;;5.53;3.10;;;10.20;99.90;;;;;;4985711;28;20057;-64
2023/01/11 03:35:19;;;;;;;;;;;10.20;99.90;;;;;;4988329;28;20046;-72
2023/01/11 03:38:01;;;;;;;5.50;3.30;;;10.20;99.90;;;;;;4988739;28;19933;-67
2023/01/11 03:40:37;;;;;;;4.57;2.97;;;10.10;99.90;;;;;;5001954;28;20042;-72
2023/01/11 03:43:10;;;;;;;5.43;2.90;;;10.30;99.90;;;;;;4991476;28;20038;-65
2023/01/11 03:45:59;;;;;;;4.97;2.60;;;10.30;99.90;;;;;;5008660;28;20048;-66
2023/01/11 03:48:31;;;;;;;5.15;2.50;;;10.40;99.90;;;;;;4988705;28;20064;-66
2023/01/11 03:50:58;;;;;;;5.25;2.67;;;10.50;99.90;;;;;;4983174;28;20084;-65
2023/01/11 03:53:27;;;;;;;5.13;2.53;;;10.40;99.90;;;;;;4986637;28;20049;-63
2023/01/11 03:55:57;;;;;;;5.90;2.67;;;10.40;99.90;;;;;;4985309;28;20100;-64
2023/01/11 03:58:25;;;;;;;5.50;2.70;;;10.60;99.90;;;;;;4988010;28;20448;-65
2023/01/11 04:00:54;;;;;;;4.43;2.67;;;10.40;99.90;;;;;;4987315;28;20068;-65
2023/01/11 04:03:19;;;;;;;5.70;3.30;;;10.60;99.90;;;;;;4990926;28;20107;-67
2023/01/11 04:05:51;;;;;;;5.43;3.05;;;10.60;99.90;;;;;;4992196;28;20500;-64
2023/01/11 04:08:16;;;;;;;7.30;3.83;;;10.70;99.90;;;;;;5008081;28;20050;-66
2023/01/11 04:10:42;;;;;;;7.10;3.65;;;10.60;99.90;;;;;;5007124;28;21606;-66
2023/01/11 04:13:08;;;;;;;7.82;3.88;;;10.50;99.90;;;;;;4990191;28;20527;-64
2023/01/11 04:15:34;;;;;;;9.52;4.15;;;10.50;99.90;;;;;;5008199;28;20050;-67
2023/01/11 04:18:04;;;;;;;9.43;4.30;;;10.50;99.90;;;;;;4988650;28;20137;-67
2023/01/11 04:20:35;;;;;;;9.00;4.75;;;10.50;99.90;;;;;;4991124;28;20083;-65
2023/01/11 04:23:02;;;;;;;10.10;4.82;;;10.60;99.90;;;;;;4991912;28;20389;-67
2023/01/11 04:25:28;;;;;;;10.20;4.55;;;10.60;99.90;;;;;;5008549;28;20049;-66
2023/01/11 04:27:53;;;;;;;11.18;4.90;;;10.70;99.90;;;;;;4973841;28;20057;-64
2023/01/11 04:30:20;;;;;;;8.80;4.85;;;10.70;99.90;;;;;;4990251;28;20050;-65
2023/01/11 04:32:45;;;;;;;11.93;6.15;;;10.50;99.90;;;;;;4987743;28;20460;-68
2023/01/11 04:35:11;;;;;;;17.70;6.30;;;10.70;99.90;;;;;;5004942;28;20058;-66
2023/01/11 04:37:37;;;;;;;15.07;6.72;;;10.80;99.90;;;;;;4990378;28;20436;-67
2023/01/11 04:40:03;;;;;;;20.13;6.75;;;10.60;99.90;;;;;;4993465;28;20034;-65
2023/01/11 04:42:28;;;;;;;16.58;7.03;;;10.60;99.90;;;;;;5004931;28;20045;-72
2023/01/11 04:44:54;;;;;;;21.80;7.43;;;10.70;99.90;;;;;;5012365;28;20038;-68
2023/01/11 04:47:21;;;;;;;18.40;7.10;;;10.60;99.90;;;;;;4991492;28;20033;-68
2023/01/11 04:49:47;;;;;;;26.10;7.53;;;10.90;99.90;;;;;;4989280;28;20036;-67
2023/01/11 04:52:15;;;;;;;18.00;6.28;;;10.90;99.90;;;;;;4972304;28;20049;-72
2023/01/11 04:54:41;;;;;;;20.90;6.55;;;10.80;99.90;;;;;;5003882;28;20388;-69
2023/01/11 04:57:09;;;;;;;27.05;6.32;;;10.90;99.90;;;;;;4990265;28;20121;-68
2023/01/11 04:59:35;;;;;;;26.67;6.00;;;11.00;99.90;;;;;;5005585;28;20037;-66
2023/01/11 05:02:00;;;;;;;22.70;5.85;;;10.80;99.90;;;;;;5007159;28;20045;-67
2023/01/11 05:04:26;;;;;;;29.05;5.30;;;11.00;99.90;;;;;;4991104;28;20054;-69
2023/01/11 05:06:52;;;;;;;31.40;5.13;;;10.90;99.90;;;;;;5004683;28;20052;-66
2023/01/11 05:09:18;;;;;;;25.05;3.47;;;11.00;99.90;;;;;;4992035;28;20100;-71
2023/01/11 05:11:44;;;;;;;29.83;4.40;;;11.00;99.90;;;;;;5007118;28;20096;-72
2023/01/11 05:14:10;;;;;;;28.20;4.70;;;11.10;99.90;;;;;;4989405;28;20042;-69
2023/01/11 05:16:36;;;;;;;28.40;4.32;;;10.90;99.90;;;;;;4993110;28;20041;-69
2023/01/11 05:19:03;;;;;;;21.98;3.22;;;11.00;99.90;;;;;;4991244;28;20030;-69
2023/01/11 05:21:35;;;;;;;31.75;3.83;;;10.90;99.90;;;;;;4992284;28;20386;-67
2023/01/11 05:24:03;;;;;;;24.10;3.70;;;11.00;99.90;;;;;;4992046;28;20196;-70
2023/01/11 05:26:31;;;;;;;26.27;4.25;;;10.90;99.90;;;;;;4989243;28;20048;-66
2023/01/11 05:28:59;;;;;;;32.20;4.15;;;11.00;99.90;;;;;;4993942;28;20069;-71
2023/01/11 05:31:25;;;;;;;27.20;4.30;;;10.90;99.90;;;;;;4990397;28;20390;-71
2023/01/11 05:33:52;;;;;;;32.22;3.85;;;10.80;99.90;;;;;;5009207;28;20073;-66
2023/01/11 05:36:20;;;;;;;32.80;4.22;;;10.90;99.90;;;;;;4988070;28;20041;-69
2023/01/11 05:38:47;;;;;;;30.05;4.22;;;10.90;99.90;;;;;;5002351;28;20407;-69
2023/01/11 05:41:14;;;;;;;39.40;4.85;;;10.80;99.90;;;;;;4987540;28;20416;-70
2023/01/11 05:46:27;;;;;;;40.38;4.55;;;10.80;99.90;;;;;;4987393;28;20484;-71
2023/01/11 05:48:54;;;;;;;26.35;4.30;;;10.70;99.90;;;;;;4986696;28;20042;-71
2023/01/11 05:51:21;;;;;;;29.05;4.53;;;10.70;99.90;;;;;;4989491;28;20077;-72
2023/01/11 05:53:48;;;;;;;34.95;4.85;;;10.80;99.90;;;;;;4990101;28;20091;-71
2023/01/11 05:56:14;;;;;;;36.83;4.43;;;10.70;99.90;;;;;;4992744;28;20034;-71
2023/01/11 05:58:39;;;;;;;29.88;4.22;;;10.60;99.90;;;;;;4990270;28;20060;-72
2023/01/11 06:01:05;;;;;;;34.85;5.30;;;10.70;99.90;;;;;;5006160;28;20048;-70
2023/01/11 06:03:31;;;;;;;28.95;4.50;;;10.60;99.90;;;;;;5001812;28;20073;-71
2023/01/11 06:05:58;;;;;;;40.97;5.53;;;10.70;99.90;;;;;;4985776;28;20152;-71
2023/01/11 06:08:24;;;;;;;26.75;4.63;;;10.70;99.90;;;;;;4988666;28;20042;-69
2023/01/11 06:10:51;;;;;;;38.38;5.43;;;10.70;99.90;;;;;;4990961;28;20503;-71
2023/01/11 06:13:25;;;;;;;36.40;5.20;;;10.70;99.90;;;;;;4987866;28;20125;-68
2023/01/11 06:15:54;;;;;;;40.67;5.95;;;10.80;99.90;;;;;;4989663;28;20125;-69
2023/01/11 06:18:19;;;;;;;36.53;5.20;;;10.80;99.90;;;;;;4988456;28;20041;-70
2023/01/11 06:20:49;;;;;;;40.10;5.43;;;10.60;99.90;;;;;;4993063;28;20499;-73
2023/01/11 06:23:16;;;;;;;38.67;5.40;;;10.60;99.90;;;;;;4988265;28;20049;-70
2023/01/11 06:25:41;;;;;;;48.45;6.07;;;10.70;99.90;;;;;;5001802;28;20386;-72
2023/01/11 06:28:07;;;;;;;35.50;5.88;;;10.70;99.90;;;;;;4985725;28;20050;-69
2023/01/11 06:30:32;;;;;;;34.42;5.25;;;10.60;99.90;;;;;;4986441;28;20049;-71
2023/01/11 06:33:07;;;;;;;48.20;7.28;;;10.50;99.90;;;;;;4983546;28;20473;-70
2023/01/11 06:35:38;;;;;;;41.05;6.18;;;10.70;99.90;;;;;;4984071;28;20114;-74
2023/01/11 06:38:03;;;;;;;41.05;4.97;;;10.50;99.90;;;;;;4985807;28;20508;-73
2023/01/11 06:40:29;;;;;;;43.13;5.95;;;10.50;99.90;;;;;;4986763;28;20124;-71
2023/01/11 06:42:55;;;;;;;37.63;6.28;;;10.60;99.90;;;;;;4986636;28;20046;-70
2023/01/11 06:45:20;;;;;;;39.25;5.35;;;10.40;99.90;;;;;;4985772;28;20377;-69
2023/01/11 06:47:46;;;;;;;45.97;5.22;;;10.40;99.90;;;;;;5002207;28;20064;-71
2023/01/11 06:50:11;;;;;;;44.28;6.05;;;10.40;99.90;;;;;;4998912;28;20096;-71
2023/01/11 06:52:37;;;;;;;52.15;6.63;;;10.40;99.90;;;;;;4967613;28;20395;-71
2023/01/11 06:55:03;;;;;;;48.33;6.78;;;10.40;99.90;;;;;;4988145;28;20099;-71
2023/01/11 06:57:28;;;;;;;45.80;5.70;;;10.30;99.90;;;;;;4987302;28;20034;-70
2023/01/11 06:59:54;;;;;;;47.47;6.10;;;10.30;99.90;;;;;;4989315;28;20381;-70
2023/01/11 07:02:20;;;;;;;44.80;6.18;;;10.20;99.90;;;;;;4987998;28;20091;-69
2023/01/11 07:04:45;;;;;;;38.67;5.65;;;10.10;99.90;;;;;;4990138;28;20042;-69
2023/01/11 07:07:11;;;;;;;47.97;5.85;;;10.00;99.90;;;;;;5004879;28;20056;-67
2023/01/11 07:09:37;;;;;;;48.75;6.50;;;10.10;99.90;;;;;;4983948;28;20034;-71
2023/01/11 07:12:02;;;;;;;39.58;7.10;;;10.20;99.90;;;;;;4983836;28;20799;-71
2023/01/11 07:14:28;;;;;;;47.00;5.38;;;10.20;99.90;;;;;;5003433;28;20033;-73
2023/01/11 07:16:53;;;;;;;53.92;6.72;;;10.10;99.90;;;;;;4986669;28;20037;-72
2023/01/11 07:19:19;;;;;;;49.67;6.40;;;10.10;99.90;;;;;;4989740;28;20052;-71
2023/01/11 07:21:44;;;;;;;57.13;6.40;;;10.20;99.90;;;;;;4992348;28;20077;-74
2023/01/11 07:24:10;;;;;;;34.85;5.30;;;10.20;99.90;;;;;;4989370;28;20045;-73
2023/01/11 07:26:40;;;;;;;36.10;5.05;;;10.20;99.90;;;;;;4994873;28;20044;-75
2023/01/11 07:29:07;;;;;;;47.33;5.70;;;10.30;99.90;;;;;;4990983;28;20050;-71
2023/01/11 07:31:32;;;;;;;42.60;4.88;;;10.20;99.90;;;;;;4996747;28;20050;-72
2023/01/11 07:33:58;;;;;;;39.03;5.60;;;10.10;99.90;;;;;;4988956;28;20038;-76
2023/01/11 07:36:23;;;;;;;32.33;4.55;;;10.10;99.90;;;;;;4987294;28;20038;-73
2023/01/11 07:38:49;;;;;;;24.55;3.30;;;10.20;99.90;;;;;;4984220;28;20046;-73
2023/01/11 07:43:59;;;;;;;22.38;3.28;;;10.10;99.90;;;;;;4989980;28;20069;-73
2023/01/11 07:46:24;;;;;;;26.27;3.83;;;10.10;99.90;;;;;;4997530;28;20064;-75
2023/01/11 07:48:50;;;;;;;27.48;3.88;;;10.10;99.90;;;;;;4997409;28;20084;-75
2023/01/11 07:51:19;;;;;;;27.98;3.65;;;10.10;99.90;;;;;;4991568;28;20717;-74
2023/01/11 07:53:45;;;;;;;25.50;3.70;;;9.90;99.90;;;;;;4992567;28;20054;-77
2023/01/11 07:56:12;;;;;;;34.10;4.15;;;9.90;99.90;;;;;;5000254;28;20128;-74
2023/01/11 07:58:37;;;;;;;30.40;4.28;;;9.70;99.90;;;;;;5010845;28;20042;-74
2023/01/11 08:01:04;;;;;;;31.75;4.25;;;9.70;99.90;;;;;;4991530;28;20465;-73
2023/01/11 08:03:30;;;;;;;31.98;3.92;;;9.70;99.90;;;;;;4992196;28;20030;-76
2023/01/11 08:05:56;;;;;;;22.58;3.72;;;9.60;99.90;;;;;;5005659;28;20497;-76
2023/01/11 08:08:21;;;;;;;30.40;3.92;;;9.60;99.90;;;;;;4992422;28;20503;-72
2023/01/11 08:14:38;;;;;;;30.08;4.60;;;9.50;99.90;;;;;;4993181;28;20488;-75
2023/01/11 08:16:21;;;;;;;33.97;4.63;;;9.50;99.90;;;;;;4993028;28;20042;-74
2023/01/11 08:18:49;;;;;;;43.55;5.45;;;9.50;99.90;;;;;;4986780;28;20042;-75
2023/01/11 08:21:16;;;;;;;37.72;4.45;;;9.60;99.90;;;;;;5009780;28;20527;-74
2023/01/11 08:23:41;;;;;;;33.03;5.45;;;9.50;99.90;;;;;;4989116;28;20061;-71
2023/01/11 08:26:07;;;;;;;39.25;4.60;;;9.50;99.90;;;;;;5006775;28;20037;-75
2023/01/11 08:28:33;;;;;;;31.33;4.47;;;9.60;99.90;;;;;;4975270;28;20045;-77
2023/01/11 08:31:06;;;;;;;33.63;4.53;;;9.50;99.90;;;;;;4988976;28;20045;-74
2023/01/11 08:33:31;;;;;;;32.67;5.05;;;9.50;99.90;;;;;;4990558;28;20049;-75
2023/01/11 08:35:57;;;;;;;39.60;5.20;;;9.50;99.90;;;;;;4989321;28;20042;-77
2023/01/11 08:38:23;;;;;;;24.08;4.40;;;9.60;99.90;;;;;;4991359;28;20048;-75
2023/01/11 08:40:48;;;;;;;39.88;4.97;;;9.60;99.90;;;;;;4989626;28;20042;-75
2023/01/11 08:43:14;;;;;;;26.73;4.00;;;9.50;99.90;;;;;;4987689;28;20038;-72
2023/01/11 08:45:39;;;;;;;23.65;3.75;;;9.60;99.90;;;;;;4988397;28;20102;-76
2023/01/11 08:48:05;;;;;;;29.33;3.72;;;9.70;99.90;;;;;;4988578;28;20045;-77
2023/01/11 08:50:31;;;;;;;34.03;3.88;;;9.70;99.90;;;;;;4994170;28;20476;-74
2023/01/11 08:52:57;;;;;;;21.40;3.83;;;9.70;99.90;;;;;;4990658;28;20449;-76
2023/01/11 08:55:23;;;;;;;29.10;3.47;;;9.70;99.90;;;;;;4990705;28;20129;-73
2023/01/11 08:57:48;;;;;;;26.90;4.22;;;9.60;99.90;;;;;;4987212;28;20551;-76
2023/01/11 09:00:14;;;;;;;28.33;3.97;;;9.60;99.90;;;;;;4990444;28;20041;-75
2023/01/11 09:02:40;;;;;;;23.80;4.13;;;9.50;99.90;;;;;;4987626;28;20497;-73
2023/01/11 09:05:06;;;;;;;25.10;3.80;;;9.50;99.90;;;;;;5003812;28;20496;-73
2023/01/11 09:07:31;;;;;;;19.70;2.97;;;9.50;99.90;;;;;;4989643;28;20048;-75
2023/01/11 09:09:57;;;;;;;29.00;4.78;;;9.50;99.90;;;;;;4988538;28;20042;-75
2023/01/11 09:12:23;;;;;;;33.72;4.28;;;9.50;99.90;;;;;;4988369;28;20129;-76
2023/01/11 09:14:48;;;;;;;26.75;4.22;;;9.30;99.90;;;;;;4985449;28;20042;-74
2023/01/11 09:17:14;;;;;;;34.17;4.10;;;9.30;99.90;;;;;;4986066;28;20038;-76
2023/01/11 09:19:39;;;;;;;33.10;4.03;;;9.20;99.90;;;;;;4986434;28;20073;-74
2023/01/11 09:22:05;;;;;;;28.75;4.90;;;9.10;99.90;;;;;;4990838;28;20263;-75
2023/01/11 09:24:30;;;;;;;22.80;3.50;;;9.10;99.90;;;;;;4985693;28;20128;-74
2023/01/11 09:26:57;;;;;;;31.40;4.50;;;9.20;99.90;;;;;;5002353;28;20037;-76
2023/01/11 09:29:23;;;;;;;23.30;3.80;;;9.10;99.90;;;;;;5002373;28;20050;-75
2023/01/11 09:31:49;;;;;;;27.67;4.53;;;9.00;99.90;;;;;;4989227;28;20401;-71
2023/01/11 09:34:15;;;;;;;23.73;3.90;;;9.00;99.90;;;;;;4987220;28;20042;-72
2023/01/11 09:36:41;;;;;;;30.13;5.70;;;9.00;99.90;;;;;;5004955;28;20030;-69
2023/01/11 09:39:11;;;;;;;30.08;4.00;;;9.00;99.90;;;;;;4988009;28;20045;-74
2023/01/11 09:42:09;;;;;;;20.88;4.07;;;9.10;99.90;;;;;;4985983;28;20684;-74
2023/01/11 09:44:41;;;;;;;33.25;4.82;;;9.10;99.90;;;;;;4983236;28;20045;-71
2023/01/11 09:47:16;;;;;;;30.60;3.95;;;9.20;99.90;;;;;;4984265;28;20124;-75
2023/01/11 09:49:49;;;;;;;29.63;4.47;;;9.20;99.90;;;;;;4986067;28;20042;-75
2023/01/11 09:52:38;;;;;;;25.15;4.72;;;9.30;99.90;;;;;;4987055;28;20046;-74
2023/01/11 09:55:09;;;;;;;22.85;4.35;;;9.40;99.90;;;;;;4985820;28;20034;-72
2023/01/11 09:57:53;;;;;;;34.75;4.35;;;9.40;99.90;;;;;;4986711;28;20098;-75
2023/01/11 10:00:26;;;;;;;28.55;4.53;;;9.50;99.90;;;;;;5001289;28;20144;-72
2023/01/11 10:03:07;;;;;;;29.65;4.93;;;9.50;99.90;;;;;;4978822;28;20057;-71
2023/01/11 10:05:52;;;;;;;27.27;4.60;;;9.50;99.90;;;;;;4988088;28;20046;-70
2023/01/11 10:08:28;;;;;;;27.02;4.57;;;9.50;99.90;;;;;;4985617;28;20461;-74
2023/01/11 10:11:19;;;;;;;34.00;4.53;;;9.60;99.90;;;;;;5003356;28;20053;-74
2023/01/11 10:14:25;;;;;;;26.15;4.35;;;9.60;99.90;;;;;;4984945;28;20401;-71
2023/01/11 10:17:29;;;;;;;30.67;4.28;;;9.60;99.90;;;;;;4951542;28;20196;-71
2023/01/11 10:20:12;;;;;;;32.63;4.30;;;9.70;99.90;;;;;;4984464;28;20042;-67
2023/01/11 10:22:43;;;;;;;31.45;4.78;;;9.60;99.90;;;;;;4984668;28;20092;-65
2023/01/11 10:25:22;;;;;;;33.65;4.95;;;9.60;99.90;;;;;;4985243;28;20049;-67
2023/01/11 10:27:59;;;;;;;28.10;4.60;;;9.50;99.90;;;;;;5001024;28;20029;-66
2023/01/11 10:31:05;;;;;;;32.55;4.38;;;9.50;99.90;;;;;;4985812;28;20045;-64
2023/01/11 10:36:13;;;;;;;29.25;3.90;;;9.50;99.90;;;;;;4989289;28;20507;-65
2023/01/11 10:41:47;;;;;;;25.48;5.38;;;9.60;99.90;;;;;;4988821;28;20045;-66
2023/01/11 10:44:27;;;;;;;26.02;4.70;;;9.70;99.90;;;;;;5006138;28;20065;-67
2023/01/11 10:46:58;;;;;;;26.50;4.97;;;9.70;99.90;;;;;;4988208;28;20129;-68
2023/01/11 10:49:28;;;;;;;21.20;3.70;;;9.70;99.90;;;;;;4988054;28;20492;-66
2023/01/11 10:52:01;;;;;;;25.95;4.18;;;9.70;99.90;;;;;;4986579;28;20520;-64
2023/01/11 10:54:32;;;;;;;27.20;4.45;;;9.80;99.90;;;;;;4986578;28;20113;-67
2023/01/11 10:57:14;;;;;;;25.65;4.72;;;9.80;99.90;;;;;;4989281;28;20046;-67
2023/01/11 10:59:45;;;;;;;;;;;9.80;99.90;;;;;;4994895;28;20034;-68
2023/01/11 11:02:29;;;;;;;28.00;4.03;;;9.70;99.90;;;;;;4985913;28;19921;-68
2023/01/11 11:05:04;;;;;;;26.05;3.90;;;9.70;99.90;;;;;;4982529;28;20504;-72
2023/01/11 11:08:04;;;;;;;24.40;4.30;;;9.80;99.90;;;;;;4984574;28;20613;-68
2023/01/11 11:10:47;;;;;;;28.35;4.32;;;9.80;99.90;;;;;;5003094;28;20168;-68
2023/01/11 11:13:26;;;;;;;25.48;4.13;;;9.80;99.90;;;;;;4986422;28;20042;-66
2023/01/11 11:16:16;;;;;;;22.85;4.38;;;9.80;99.90;;;;;;4987967;28;20053;-70
2023/01/11 11:18:42;;;;;;;33.45;4.53;;;9.80;99.90;;;;;;5002013;28;20385;-68
2023/01/11 11:21:21;;;;;;;25.60;3.88;;;9.80;99.90;;;;;;4985084;28;20412;-68
2023/01/11 11:23:54;;;;;;;22.95;4.50;;;9.80;99.90;;;;;;4983059;28;20065;-70
2023/01/11 11:26:21;;;;;;;31.63;4.60;;;9.80;99.90;;;;;;5006040;28;20038;-74
2023/01/11 11:29:06;;;;;;;27.95;4.78;;;9.80;99.90;;;;;;5002188;28;20122;-73
2023/01/11 11:31:35;;;;;;;32.75;4.68;;;9.70;99.90;;;;;;5004047;28;20050;-70
2023/01/11 11:34:17;;;;;;;31.13;4.00;;;9.80;99.90;;;;;;4988454;28;20042;-75
2023/01/11 11:36:45;;;;;;;25.15;4.15;;;9.80;99.90;;;;;;4989078;28;20104;-74
2023/01/11 11:39:19;;;;;;;33.13;4.45;;;9.80;99.90;;;;;;5000210;28;20056;-72
2023/01/11 11:41:48;;;;;;;24.88;3.25;;;9.80;99.90;;;;;;5002756;28;20100;-69
2023/01/11 11:44:18;;;;;;;27.73;3.85;;;9.90;99.90;;;;;;4988869;28;20397;-70
2023/01/11 11:46:59;;;;;;;26.50;3.95;;;9.80;99.90;;;;;;4989309;28;20111;-70
2023/01/11 11:49:26;;;;;;;28.00;4.68;;;9.70;99.90;;;;;;4986694;28;20049;-73
2023/01/11 11:51:53;;;;;;;25.30;3.88;;;9.70;99.90;;;;;;4987949;28;20045;-72
2023/01/11 11:54:36;;;;;;;20.27;3.72;;;9.70;99.90;;;;;;4990701;28;20418;-68
2023/01/11 11:57:28;;;;;;;34.38;3.80;;;9.70;99.90;;;;;;4987091;28;20392;-71
2023/01/11 12:00:05;;;;;;;36.45;4.05;;;9.70;99.90;;;;;;4988522;28;20481;-75
2023/01/11 12:02:33;;;;;;;30.92;4.30;;;9.70;99.90;;;;;;4989898;28;20037;-76
2023/01/11 12:05:04;;;;;;;25.45;4.25;;;9.80;99.90;;;;;;4988955;28;20077;-72
2023/01/11 12:07:35;;;;;;;25.00;4.93;;;9.80;99.90;;;;;;5003475;28;20120;-70
2023/01/11 12:10:08;;;;;;;24.00;3.45;;;9.80;99.90;;;;;;4990717;28;20512;-70
2023/01/11 12:12:46;;;;;;;27.30;4.47;;;9.90;99.90;;;;;;4969973;28;20073;-71
2023/01/11 12:15:15;;;;;;;37.67;4.35;;;9.90;99.90;;;;;;4983678;28;20042;-71
2023/01/11 12:17:41;;;;;;;27.50;3.95;;;9.90;99.90;;;;;;4990381;28;20121;-73
2023/01/11 12:20:26;;;;;;;30.15;3.70;;;9.90;99.90;;;;;;4987684;28;20057;-73
2023/01/11 12:23:18;;;;;;;23.80;4.40;;;9.80;99.90;;;;;;4985581;28;20046;-71
2023/01/11 12:26:11;;;;;;;30.05;5.10;;;9.90;99.90;;;;;;5007902;28;20121;-72
2023/01/11 12:28:40;;;;;;;29.67;5.00;;;9.80;99.90;;;;;;4983105;28;20113;-75
2023/01/11 12:31:17;;;;;;;30.27;4.95;;;9.80;99.90;;;;;;5002992;28;20041;-72
2023/01/11 12:34:15;;;;;;;32.80;3.92;;;9.80;99.90;;;;;;4987391;28;20049;-72
2023/01/11 12:36:53;;;;;;;22.90;3.42;;;9.90;99.90;;;;;;4989685;28;20034;-72
2023/01/11 12:39:28;;;;;;;25.70;4.05;;;9.80;99.90;;;;;;5004513;28;20046;-74
2023/01/11 12:42:02;;;;;;;36.70;4.28;;;9.80;99.90;;;;;;4992165;28;20050;-72
2023/01/11 12:44:53;;;;;;;28.30;4.22;;;9.80;99.90;;;;;;4989870;28;20572;-71
2023/01/11 12:47:49;;;;;;;29.40;3.92;;;9.80;99.90;;;;;;4993339;28;20049;-68
2023/01/11 12:50:25;;;;;;;25.08;4.18;;;9.80;99.90;;;;;;4991277;28;20049;-70
2023/01/11 12:53:25;;;;;;;23.98;3.97;;;9.70;99.90;;;;;;5009618;28;20065;-68
2023/01/11 12:56:17;;;;;;;31.38;3.97;;;9.80;99.90;;;;;;4994687;28;20088;-73
2023/01/11 12:59:00;;;;;;;29.13;4.55;;;9.70;99.90;;;;;;4990162;28;20121;-72
2023/01/11 13:01:44;;;;;;;34.65;4.57;;;9.80;99.90;;;;;;4990040;28;20038;-71
2023/01/11 13:04:13;;;;;;;28.52;4.13;;;9.70;99.90;;;;;;4991384;28;20390;-72
2023/01/11 13:07:02;;;;;;;30.88;3.97;;;9.60;99.90;;;;;;4992927;28;20589;-72
2023/01/11 13:09:35;;;;;;;32.60;4.18;;;9.60;99.90;;;;;;4988443;28;20394;-72
2023/01/11 13:12:26;;;;;;;26.15;3.58;;;9.60;99.90;;;;;;5012035;28;20573;-70
2023/01/11 13:14:58;;;;;;;37.08;4.13;;;9.50;99.90;;;;;;4986507;28;20049;-70
2023/01/11 13:17:42;;;;;;;30.70;4.13;;;9.50;99.90;;;;;;5008936;28;20045;-71
2023/01/11 13:20:23;;;;;;;30.77;3.78;;;9.50;99.90;;;;;;5007620;28;20030;-70
2023/01/11 13:22:54;;;;;;;27.42;3.97;;;9.40;99.90;;;;;;4973587;28;20157;-71
2023/01/11 13:25:25;;;;;;;29.15;4.05;;;9.40;99.90;;;;;;4988043;28;20049;-72
2023/01/11 13:27:54;;;;;;;34.30;4.68;;;9.40;99.90;;;;;;4992500;28;20038;-72
2023/01/11 13:30:23;;;;;;;29.42;3.80;;;9.50;99.90;;;;;;4990204;28;20049;-69
2023/01/11 13:33:02;;;;;;;28.60;3.85;;;9.60;99.90;;;;;;4991043;28;20176;-72
2023/01/11 13:36:03;;;;;;;28.80;3.78;;;9.60;99.90;;;;;;5006228;28;20516;-72
2023/01/11 13:38:46;;;;;;;24.98;3.92;;;9.70;99.90;;;;;;4979176;28;20053;-71
2023/01/11 13:41:42;;;;;;;30.27;3.70;;;9.70;99.90;;;;;;5006843;28;20393;-73